Time;durP1;ratioP1;P1;durP2;ratioP2;P2;SDS_P1;SDS_P2;PMS_P1;PMS_P2;Temp;Humidity;BMP_temperature;BMP_pressure;BME280_temperature;BME280_humidity;BME280_pressure;Samples;Min_cycle;Max_cycle;Signal;HPM_P1;HPM_P2
2023/03/21 00:01:35;;;;;;;53.55;23.60;;;9.30;99.90;;;;;;5053538;28;20485;-70
2023/03/21 00:04:02;;;;;;;59.33;26.20;;;9.30;99.90;;;;;;5053474;28;20485;-70
2023/03/21 00:06:27;;;;;;;82.18;28.63;;;9.30;99.90;;;;;;5053480;28;20485;-70
2023/03/21 00:08:53;;;;;;;83.90;30.25;;;9.30;99.90;;;;;;5053414;28;20033;-70
2023/03/21 00:11:18;;;;;;;88.78;30.67;;;9.30;99.90;;;;;;5053660;28;20056;-70
2023/03/21 00:13:44;;;;;;;86.35;30.23;;;9.30;99.90;;;;;;5053507;28;20397;-70
2023/03/21 00:16:15;;;;;;;77.03;29.83;;;9.30;99.90;;;;;;5053280;28;20509;-70
2023/03/21 00:18:47;;;;;;;69.18;29.38;;;9.40;99.90;;;;;;5053541;28;20041;-70
2023/03/21 00:21:15;;;;;;;78.72;30.80;;;9.30;99.90;;;;;;5053267;28;20045;-69
2023/03/21 00:23:42;;;;;;;68.53;30.27;;;9.30;99.90;;;;;;5053336;28;20039;-70
2023/03/21 00:26:08;;;;;;;62.25;28.67;;;9.30;99.90;;;;;;5069780;28;20493;-70
2023/03/21 00:28:36;;;;;;;76.55;31.27;;;9.30;99.90;;;;;;5069726;28;20497;-70
2023/03/21 00:31:02;;;;;;;60.15;29.35;;;9.40;99.90;;;;;;5069956;28;20498;-70
2023/03/21 00:33:31;;;;;;;59.33;28.55;;;9.40;99.90;;;;;;5069632;28;20048;-70
2023/03/21 00:35:56;;;;;;;59.83;29.75;;;9.30;99.90;;;;;;5069838;28;20098;-70
2023/03/21 00:38:23;;;;;;;52.28;28.48;;;9.30;99.90;;;;;;5052860;28;20048;-70
2023/03/21 00:40:49;;;;;;;52.88;29.88;;;9.40;99.90;;;;;;5052750;28;20049;-70
2023/03/21 00:43:22;;;;;;;56.38;28.92;;;9.40;99.90;;;;;;5053021;28;20039;-70
2023/03/21 00:45:49;;;;;;;45.92;27.23;;;9.40;99.90;;;;;;5052738;28;20091;-70
2023/03/21 00:48:15;;;;;;;45.78;27.75;;;9.30;99.90;;;;;;5052707;28;20045;-70
2023/03/21 00:50:44;;;;;;;52.65;28.73;;;9.40;99.90;;;;;;5052877;28;20045;-70
2023/03/21 00:53:10;;;;;;;49.25;28.73;;;9.40;99.90;;;;;;5052612;28;20084;-70
2023/03/21 00:55:37;;;;;;;42.60;26.65;;;9.40;99.90;;;;;;5052036;28;20080;-70
2023/03/21 00:58:03;;;;;;;55.58;28.98;;;9.40;99.90;;;;;;5069178;28;20049;-70
2023/03/21 01:00:29;;;;;;;44.78;27.10;;;9.40;99.90;;;;;;5052365;28;20116;-70
2023/03/21 01:03:04;;;;;;;56.55;30.17;;;9.40;99.90;;;;;;5052367;28;20132;-70
2023/03/21 01:08:18;;;;;;;42.88;26.73;;;9.40;99.90;;;;;;5052281;28;20476;-70
2023/03/21 01:10:45;;;;;;;42.63;26.08;;;9.40;99.90;;;;;;5052258;28;20516;-70
2023/03/21 01:13:14;;;;;;;40.15;25.30;;;9.40;99.90;;;;;;5052238;28;20041;-70
2023/03/21 01:15:52;;;;;;;39.72;25.40;;;9.40;99.90;;;;;;5052109;28;20052;-68
2023/03/21 01:18:21;;;;;;;46.10;26.55;;;9.40;99.90;;;;;;5052393;28;20516;-68
2023/03/21 01:20:47;;;;;;;48.50;26.73;;;9.40;99.90;;;;;;5052031;28;20036;-68
2023/03/21 01:23:14;;;;;;;43.42;24.77;;;9.40;99.90;;;;;;5052078;28;20090;-68
2023/03/21 01:25:40;;;;;;;38.38;23.48;;;9.40;99.90;;;;;;5068734;28;20072;-68
2023/03/21 01:28:06;;;;;;;39.38;23.23;;;9.40;99.90;;;;;;5068991;28;20501;-68
2023/03/21 01:30:32;;;;;;;38.60;22.88;;;9.40;99.90;;;;;;5068690;28;20049;-68
2023/03/21 01:32:58;;;;;;;36.05;21.50;;;9.40;99.90;;;;;;5052007;28;20040;-68
2023/03/21 01:35:24;;;;;;;38.55;22.95;;;9.40;99.90;;;;;;5051875;28;20106;-68
2023/03/21 01:37:50;;;;;;;37.83;22.42;;;9.50;99.90;;;;;;5052184;28;20080;-68
2023/03/21 01:40:22;;;;;;;38.08;23.02;;;9.40;99.90;;;;;;5051811;28;20390;-68
2023/03/21 01:42:48;;;;;;;41.43;23.43;;;9.50;99.90;;;;;;5051863;28;20044;-68
2023/03/21 01:45:51;;;;;;;40.25;22.77;;;9.50;99.90;;;;;;5068704;28;20276;-68
2023/03/21 01:48:19;;;;;;;37.65;22.95;;;9.50;99.90;;;;;;5051765;28;20072;-68
2023/03/21 01:50:45;;;;;;;36.03;21.60;;;9.40;99.90;;;;;;5051705;28;20052;-68
2023/03/21 01:53:12;;;;;;;34.40;22.05;;;9.40;99.90;;;;;;5051717;28;20060;-68
2023/03/21 01:55:38;;;;;;;38.72;23.88;;;9.50;99.90;;;;;;5051501;28;20098;-67
2023/03/21 01:58:06;;;;;;;36.15;23.13;;;9.40;99.90;;;;;;5051936;28;20124;-68
2023/03/21 02:00:32;;;;;;;36.95;23.08;;;9.40;99.90;;;;;;5051555;28;20087;-68
2023/03/21 02:03:01;;;;;;;34.13;22.17;;;9.40;99.90;;;;;;5051625;28;20094;-68
2023/03/21 02:05:53;;;;;;;39.80;23.35;;;9.50;99.90;;;;;;5052861;28;20033;-68
2023/03/21 02:08:20;;;;;;;35.95;23.23;;;9.40;99.90;;;;;;5053465;28;20045;-68
2023/03/21 02:10:47;;;;;;;33.72;21.58;;;9.50;99.90;;;;;;5055633;28;20126;-68
2023/03/21 02:13:14;;;;;;;37.03;23.13;;;9.50;99.90;;;;;;5055597;28;20053;-68
2023/03/21 02:15:46;;;;;;;35.70;22.08;;;9.50;99.90;;;;;;5055487;28;20053;-68
2023/03/21 02:18:25;;;;;;;38.47;22.20;;;9.50;99.90;;;;;;5055572;28;20520;-68
2023/03/21 02:21:00;;;;;;;39.25;23.08;;;9.50;99.90;;;;;;5055445;28;20533;-68
2023/03/21 02:24:03;;;;;;;40.92;23.15;;;9.40;99.90;;;;;;5055452;28;20068;-68
2023/03/21 02:26:47;;;;;;;43.10;22.80;;;9.40;99.90;;;;;;5055417;28;20041;-68
2023/03/21 02:29:44;;;;;;;40.33;22.92;;;9.40;99.90;;;;;;5055345;28;20037;-68
2023/03/21 02:32:21;;;;;;;39.95;23.67;;;9.40;99.90;;;;;;5055306;28;20077;-68
2023/03/21 02:35:07;;;;;;;37.38;23.70;;;9.40;99.90;;;;;;5038755;28;20517;-68
2023/03/21 02:37:42;;;;;;;42.65;23.40;;;9.40;99.90;;;;;;5055155;28;20087;-68
2023/03/21 02:40:18;;;;;;;38.92;23.42;;;9.40;99.90;;;;;;5055274;28;20041;-68
2023/03/21 02:42:54;;;;;;;43.40;24.75;;;9.30;99.90;;;;;;5055114;28;20115;-68
2023/03/21 02:45:27;;;;;;;32.85;20.92;;;9.40;99.90;;;;;;5055258;28;20041;-68
2023/03/21 02:48:04;;;;;;;32.97;20.85;;;9.40;99.90;;;;;;5055005;28;20045;-68
2023/03/21 02:50:50;;;;;;;36.40;21.80;;;9.40;99.90;;;;;;5071620;28;20041;-68
2023/03/21 02:53:19;;;;;;;32.30;21.33;;;9.40;99.90;;;;;;5071800;28;20060;-68
2023/03/21 02:55:46;;;;;;;34.92;21.83;;;9.40;99.90;;;;;;5071227;28;20044;-68
2023/03/21 02:58:17;;;;;;;37.15;22.45;;;9.40;99.90;;;;;;5071486;28;20557;-68
2023/03/21 03:00:45;;;;;;;40.63;23.95;;;9.40;99.90;;;;;;5054735;28;20103;-68
2023/03/21 03:03:11;;;;;;;40.70;23.40;;;9.40;99.90;;;;;;5071616;28;20037;-68
2023/03/21 03:05:44;;;;;;;47.25;24.98;;;9.40;99.90;;;;;;5054876;28;20041;-68
2023/03/21 03:08:31;;;;;;;47.20;25.15;;;9.40;99.90;;;;;;5071377;28;20080;-68
2023/03/21 03:11:04;;;;;;;43.78;24.65;;;9.30;99.90;;;;;;5054580;28;20037;-68
2023/03/21 03:13:56;;;;;;;52.53;27.13;;;9.40;99.90;;;;;;5054459;28;20475;-68
2023/03/21 03:16:43;;;;;;;47.10;26.02;;;9.40;99.90;;;;;;5054519;28;20033;-68
2023/03/21 03:19:21;;;;;;;48.22;25.98;;;9.40;99.90;;;;;;5054148;28;20068;-68
2023/03/21 03:21:55;;;;;;;49.05;25.67;;;9.30;99.90;;;;;;5054329;28;20409;-68
2023/03/21 03:24:35;;;;;;;56.83;26.05;;;9.30;99.90;;;;;;5054553;28;20072;-68
2023/03/21 03:27:16;;;;;;;45.08;24.20;;;9.30;99.90;;;;;;5054348;28;20091;-68
2023/03/21 03:29:45;;;;;;;45.60;23.17;;;9.30;99.90;;;;;;5054477;28;20044;-68
2023/03/21 03:32:15;;;;;;;40.85;22.23;;;9.30;99.90;;;;;;5070900;28;20047;-68
2023/03/21 03:34:48;;;;;;;40.13;21.10;;;9.40;99.90;;;;;;5054099;28;20068;-68
2023/03/21 03:37:19;;;;;;;35.85;19.75;;;9.30;99.90;;;;;;5070855;28;20049;-68
2023/03/21 03:39:50;;;;;;;35.25;18.88;;;9.30;99.90;;;;;;5054006;28;20037;-68
2023/03/21 03:42:26;;;;;;;39.33;18.88;;;9.30;99.90;;;;;;5054026;28;20044;-68
2023/03/21 03:44:52;;;;;;;35.95;18.95;;;9.40;99.90;;;;;;5053937;28;20041;-68
2023/03/21 03:47:41;;;;;;;30.58;17.63;;;9.30;99.90;;;;;;5054180;28;20040;-68
2023/03/21 03:50:16;;;;;;;32.75;18.08;;;9.40;99.90;;;;;;5070880;28;20045;-67
2023/03/21 03:52:51;;;;;;;28.30;16.50;;;9.30;99.90;;;;;;5053854;28;20053;-67
2023/03/21 03:55:20;;;;;;;31.95;17.92;;;9.30;99.90;;;;;;5070544;28;20519;-68
2023/03/21 03:57:46;;;;;;;34.58;17.77;;;9.30;99.90;;;;;;5053695;28;20041;-68
2023/03/21 04:00:14;;;;;;;41.03;18.45;;;9.30;99.90;;;;;;5053914;28;20045;-68
2023/03/21 04:02:40;;;;;;;30.80;17.58;;;9.30;99.90;;;;;;5053615;28;20048;-68
2023/03/21 04:05:06;;;;;;;30.95;17.88;;;9.40;99.90;;;;;;5053823;28;20036;-68
2023/03/21 04:07:32;;;;;;;32.20;17.80;;;9.40;99.90;;;;;;5070200;28;20047;-68
2023/03/21 04:09:58;;;;;;;28.38;16.23;;;9.30;99.90;;;;;;5054986;28;20107;-68
2023/03/21 04:12:24;;;;;;;32.05;18.00;;;9.30;99.90;;;;;;5053465;28;20080;-68
2023/03/21 04:14:50;;;;;;;29.77;16.17;;;9.40;99.90;;;;;;5053347;28;20041;-69
2023/03/21 04:17:17;;;;;;;35.13;17.95;;;9.30;99.90;;;;;;5070001;28;20489;-68
2023/03/21 04:19:44;;;;;;;28.67;16.88;;;9.30;99.90;;;;;;5053288;28;20520;-68
2023/03/21 04:22:11;;;;;;;30.70;17.92;;;9.30;99.90;;;;;;5053279;28;20047;-68
2023/03/21 04:24:38;;;;;;;31.73;18.58;;;9.30;99.90;;;;;;5069720;28;20033;-68
2023/03/21 04:27:04;;;;;;;33.00;18.38;;;9.30;99.90;;;;;;5070061;28;20139;-68
2023/03/21 04:29:31;;;;;;;30.65;18.05;;;9.30;99.90;;;;;;5053228;28;20077;-68
2023/03/21 04:31:56;;;;;;;29.13;17.65;;;9.30;99.90;;;;;;5068969;28;20041;-68
2023/03/21 04:34:22;;;;;;;33.35;18.65;;;9.30;99.90;;;;;;5052858;28;20048;-68
2023/03/21 04:36:49;;;;;;;34.67;18.05;;;9.30;99.90;;;;;;5053196;28;20053;-68
2023/03/21 04:39:16;;;;;;;37.28;19.05;;;9.20;99.90;;;;;;5052858;28;20417;-68
2023/03/21 04:41:44;;;;;;;38.88;19.88;;;9.30;99.90;;;;;;5052759;28;20435;-68
2023/03/21 04:44:11;;;;;;;35.33;20.05;;;9.30;99.90;;;;;;5053996;28;20106;-68
2023/03/21 04:46:37;;;;;;;41.78;22.15;;;9.20;99.90;;;;;;5052769;28;20045;-68
2023/03/21 04:49:03;;;;;;;35.47;21.40;;;9.20;99.90;;;;;;5052637;28;20041;-68
2023/03/21 04:51:29;;;;;;;41.50;22.92;;;9.30;99.90;;;;;;5069255;28;20044;-68
2023/03/21 04:53:58;;;;;;;48.80;24.85;;;9.30;99.90;;;;;;5069166;28;20037;-68
2023/03/21 04:56:32;;;;;;;43.38;23.42;;;9.30;99.90;;;;;;5035835;28;20043;-68
2023/03/21 04:59:01;;;;;;;48.00;25.52;;;9.20;99.90;;;;;;5069195;28;20559;-68
2023/03/21 05:01:30;;;;;;;37.97;23.23;;;9.30;99.90;;;;;;5052390;28;20125;-68
2023/03/21 05:03:59;;;;;;;40.92;24.33;;;9.30;99.90;;;;;;5052306;28;20082;-68
2023/03/21 05:06:26;;;;;;;42.50;24.75;;;9.20;99.90;;;;;;5052393;28;20037;-68
2023/03/21 05:08:58;;;;;;;40.00;24.27;;;9.20;99.90;;;;;;5052638;28;20091;-68
2023/03/21 05:11:29;;;;;;;41.30;24.53;;;9.30;99.90;;;;;;5052353;28;20045;-68
2023/03/21 05:13:55;;;;;;;37.60;24.92;;;9.30;99.90;;;;;;5069162;28;20057;-68
2023/03/21 05:16:24;;;;;;;40.85;25.05;;;9.30;99.90;;;;;;5052258;28;20119;-68
2023/03/21 05:18:49;;;;;;;39.75;25.17;;;9.30;99.90;;;;;;5052222;28;20044;-68
2023/03/21 05:21:16;;;;;;;43.15;25.88;;;9.30;99.90;;;;;;5052093;28;20056;-68
2023/03/21 05:23:42;;;;;;;37.00;24.52;;;9.20;99.90;;;;;;5052020;28;20559;-68
2023/03/21 05:26:09;;;;;;;45.10;26.42;;;9.20;99.90;;;;;;5068823;28;20049;-68
2023/03/21 05:28:35;;;;;;;39.35;24.52;;;9.30;99.90;;;;;;5068707;28;20080;-68
2023/03/21 05:31:05;;;;;;;43.08;26.73;;;9.30;99.90;;;;;;5052222;28;20120;-68
2023/03/21 05:33:31;;;;;;;36.60;24.90;;;9.30;99.90;;;;;;5051812;28;20386;-68
2023/03/21 05:35:57;;;;;;;42.65;26.02;;;9.20;99.90;;;;;;5051976;28;20067;-68
2023/03/21 05:38:23;;;;;;;45.90;26.98;;;9.30;99.90;;;;;;5052202;28;20124;-68
2023/03/21 05:40:50;;;;;;;37.95;25.63;;;9.20;99.90;;;;;;5068680;28;20068;-68
2023/03/21 05:43:16;;;;;;;37.20;24.85;;;9.30;99.90;;;;;;5068257;28;20512;-68
2023/03/21 05:45:42;;;;;;;37.83;24.85;;;9.30;99.90;;;;;;5051714;28;20041;-68
2023/03/21 05:48:07;;;;;;;40.97;25.40;;;9.30;99.90;;;;;;5052004;28;20045;-68
2023/03/21 05:50:33;;;;;;;35.22;24.42;;;9.30;99.90;;;;;;5051978;28;20378;-68
2023/03/21 05:52:59;;;;;;;42.42;25.70;;;9.30;99.90;;;;;;5051727;28;20048;-68
2023/03/21 05:55:24;;;;;;;34.45;23.60;;;9.30;99.90;;;;;;5051727;28;20087;-68
2023/03/21 05:57:50;;;;;;;34.45;25.02;;;9.30;99.90;;;;;;5051950;28;20442;-68
2023/03/21 06:00:16;;;;;;;38.83;24.95;;;9.30;99.90;;;;;;5051553;28;20470;-68
2023/03/21 06:02:43;;;;;;;34.67;24.05;;;9.30;99.90;;;;;;5068255;28;20041;-68
2023/03/21 06:05:09;;;;;;;34.05;24.05;;;9.30;99.90;;;;;;5068271;28;20069;-68
2023/03/21 06:07:35;;;;;;;30.83;22.90;;;9.30;99.90;;;;;;5068278;28;20045;-68
2023/03/21 06:10:02;;;;;;;36.67;24.20;;;9.30;99.90;;;;;;5068197;28;20048;-68
2023/03/21 06:12:28;;;;;;;37.35;24.88;;;9.30;99.90;;;;;;5051507;28;20033;-68
2023/03/21 06:14:53;;;;;;;35.75;24.85;;;9.30;99.90;;;;;;5068158;28;20129;-68
2023/03/21 06:17:19;;;;;;;35.75;24.77;;;9.30;99.90;;;;;;5051520;28;20041;-68
2023/03/21 06:19:44;;;;;;;36.72;24.65;;;9.20;99.90;;;;;;5051500;28;20041;-68
2023/03/21 06:22:10;;;;;;;36.35;25.23;;;9.30;99.90;;;;;;5051391;28;20037;-68
2023/03/21 06:24:36;;;;;;;50.47;27.58;;;9.20;99.90;;;;;;5051333;28;20082;-68
2023/03/21 06:27:01;;;;;;;39.50;24.73;;;9.20;99.90;;;;;;5051444;28;20068;-68
2023/03/21 06:29:27;;;;;;;44.55;25.98;;;9.30;99.90;;;;;;5051634;28;20041;-68
2023/03/21 06:31:53;;;;;;;40.58;24.67;;;9.30;99.90;;;;;;5051358;28;20525;-68
2023/03/21 06:34:18;;;;;;;42.42;26.35;;;9.20;99.90;;;;;;5051273;28;20041;-68
2023/03/21 06:36:45;;;;;;;38.53;25.85;;;9.20;99.90;;;;;;5051507;28;20044;-67
2023/03/21 06:39:11;;;;;;;44.40;27.00;;;9.30;99.90;;;;;;5051190;28;20532;-68
2023/03/21 06:41:37;;;;;;;43.45;26.17;;;9.30;99.90;;;;;;5067870;28;20041;-68
2023/03/21 06:44:02;;;;;;;41.42;25.65;;;9.30;99.90;;;;;;5051446;28;20072;-68
2023/03/21 06:46:28;;;;;;;44.03;26.23;;;9.30;99.90;;;;;;5051342;28;20124;-68
2023/03/21 06:48:54;;;;;;;39.70;25.48;;;9.30;99.90;;;;;;5051507;28;20045;-67
2023/03/21 06:51:19;;;;;;;38.72;25.23;;;9.30;99.90;;;;;;5051240;28;20045;-67
2023/03/21 06:53:45;;;;;;;42.88;25.80;;;9.30;99.90;;;;;;5052023;28;20057;-68
2023/03/21 06:56:12;;;;;;;39.78;24.42;;;9.30;99.90;;;;;;5054793;28;20045;-67
2023/03/21 06:58:38;;;;;;;32.47;21.27;;;9.40;99.90;;;;;;5054881;28;20082;-67
2023/03/21 07:01:05;;;;;;;32.78;21.13;;;9.30;99.90;;;;;;5071483;28;20056;-68
2023/03/21 07:03:31;;;;;;;32.30;20.45;;;9.30;99.90;;;;;;5071368;28;20037;-68
2023/03/21 07:05:58;;;;;;;32.65;19.42;;;9.30;99.90;;;;;;5054874;28;20041;-68
2023/03/21 07:08:23;;;;;;;28.48;17.67;;;9.30;99.90;;;;;;5038389;28;20045;-68
2023/03/21 07:10:49;;;;;;;21.13;15.18;;;9.40;99.90;;;;;;5054652;28;20044;-68
2023/03/21 07:13:15;;;;;;;23.58;14.95;;;9.40;99.90;;;;;;5054712;28;20512;-68
2023/03/21 07:15:41;;;;;;;19.48;13.90;;;9.40;99.90;;;;;;5071199;28;20072;-68
2023/03/21 07:18:08;;;;;;;21.00;14.15;;;9.40;99.90;;;;;;5054518;28;20045;-68
2023/03/21 07:20:36;;;;;;;17.67;12.25;;;9.40;99.90;;;;;;5054375;28;20044;-67
2023/03/21 07:23:02;;;;;;;18.00;13.23;;;9.40;99.90;;;;;;5054730;28;20033;-68
2023/03/21 07:25:28;;;;;;;16.73;12.50;;;9.40;99.90;;;;;;5054451;28;20392;-68
2023/03/21 07:27:54;;;;;;;14.90;11.77;;;9.40;99.90;;;;;;5054529;28;20124;-68
2023/03/21 07:30:20;;;;;;;16.90;12.13;;;9.40;99.90;;;;;;5054622;28;20048;-68
2023/03/21 07:32:46;;;;;;;15.82;12.45;;;9.40;99.90;;;;;;5054831;28;20048;-68
2023/03/21 07:35:14;;;;;;;17.35;13.77;;;9.40;99.90;;;;;;5054347;28;20041;-68
2023/03/21 07:37:40;;;;;;;21.40;15.00;;;9.40;99.90;;;;;;5054153;28;20080;-67
2023/03/21 07:40:11;;;;;;;19.77;14.35;;;9.40;99.90;;;;;;5070740;28;20079;-67
2023/03/21 07:42:41;;;;;;;18.75;14.40;;;9.40;99.90;;;;;;5054092;28;20036;-67
2023/03/21 07:45:08;;;;;;;20.88;16.02;;;9.40;99.90;;;;;;5054143;28;20072;-67
2023/03/21 07:47:34;;;;;;;19.55;15.38;;;9.40;99.90;;;;;;5070945;28;20068;-68
2023/03/21 07:50:00;;;;;;;21.95;15.15;;;9.40;99.90;;;;;;5053878;28;20448;-68
2023/03/21 07:52:25;;;;;;;19.45;15.07;;;9.40;99.90;;;;;;5070622;28;20041;-68
2023/03/21 07:54:51;;;;;;;20.48;15.40;;;9.40;99.90;;;;;;5053593;28;20086;-68
2023/03/21 07:57:17;;;;;;;19.67;15.98;;;9.40;99.90;;;;;;5070577;28;20120;-67
2023/03/21 07:59:43;;;;;;;18.50;16.02;;;9.40;99.90;;;;;;5053757;28;20037;-67
2023/03/21 08:02:18;;;;;;;19.48;16.05;;;9.40;99.90;;;;;;5070365;28;20041;-67
2023/03/21 08:04:43;;;;;;;18.63;15.52;;;9.50;99.90;;;;;;5053573;28;20071;-67
2023/03/21 08:07:09;;;;;;;18.60;15.70;;;9.40;99.90;;;;;;5070278;28;20065;-67
2023/03/21 08:09:36;;;;;;;21.40;16.05;;;9.40;99.90;;;;;;5070283;28;20037;-67
2023/03/21 08:12:02;;;;;;;22.23;15.77;;;9.50;99.90;;;;;;5053574;28;20505;-68
2023/03/21 08:14:28;;;;;;;22.60;15.65;;;9.50;99.90;;;;;;5053449;28;20048;-68
2023/03/21 08:16:53;;;;;;;20.33;15.18;;;9.40;99.90;;;;;;5053746;28;20052;-68
2023/03/21 08:19:20;;;;;;;19.00;14.50;;;9.50;99.90;;;;;;5053955;28;20106;-69
2023/03/21 08:21:48;;;;;;;20.05;15.45;;;9.50;99.90;;;;;;5053637;28;20045;-69
2023/03/21 08:24:14;;;;;;;18.98;15.02;;;9.50;99.90;;;;;;5053503;28;20571;-70
2023/03/21 08:26:41;;;;;;;18.48;14.45;;;9.50;99.90;;;;;;5053314;28;20056;-70
2023/03/21 08:29:07;;;;;;;16.00;12.20;;;9.50;99.90;;;;;;5069890;28;20052;-67
2023/03/21 08:31:32;;;;;;;17.60;14.35;;;9.50;99.90;;;;;;5053160;28;20041;-67
2023/03/21 08:33:58;;;;;;;18.83;14.52;;;9.60;99.90;;;;;;5052949;28;20041;-67
2023/03/21 08:36:24;;;;;;;18.77;14.48;;;9.60;99.90;;;;;;5053100;28;20095;-67
2023/03/21 08:38:53;;;;;;;23.13;15.45;;;9.70;99.90;;;;;;5052990;28;20059;-68
2023/03/21 08:41:20;;;;;;;20.13;13.95;;;9.60;99.90;;;;;;5052844;28;20064;-68
2023/03/21 08:43:47;;;;;;;19.27;14.43;;;9.70;99.90;;;;;;5069732;28;20071;-68
2023/03/21 08:46:13;;;;;;;19.10;13.73;;;9.60;99.90;;;;;;5053101;28;20492;-68
2023/03/21 08:48:38;;;;;;;19.05;14.05;;;9.70;99.90;;;;;;5053048;28;20048;-68
2023/03/21 08:51:05;;;;;;;18.73;14.63;;;9.70;99.90;;;;;;5052781;28;20420;-68
2023/03/21 08:53:31;;;;;;;20.80;15.27;;;9.60;99.90;;;;;;5052939;28;20094;-68
2023/03/21 08:55:57;;;;;;;19.45;14.07;;;9.60;99.90;;;;;;5069213;28;20045;-68
2023/03/21 08:58:23;;;;;;;24.10;16.15;;;9.60;99.90;;;;;;5052651;28;20191;-68
2023/03/21 09:00:48;;;;;;;24.58;16.70;;;9.70;99.90;;;;;;5052717;28;20045;-68
2023/03/21 09:03:15;;;;;;;21.45;15.52;;;9.70;99.90;;;;;;5052785;28;20044;-68
2023/03/21 09:05:44;;;;;;;22.95;16.00;;;9.70;99.90;;;;;;5069348;28;20164;-68
2023/03/21 09:08:11;;;;;;;24.65;16.38;;;9.70;99.90;;;;;;5053943;28;20051;-67
2023/03/21 09:10:37;;;;;;;24.75;16.48;;;9.70;99.90;;;;;;5052655;28;20049;-68
2023/03/21 09:13:03;;;;;;;25.48;16.00;;;9.70;99.90;;;;;;5069300;28;20055;-67
2023/03/21 09:15:29;;;;;;;27.30;16.83;;;9.60;99.90;;;;;;5052496;28;20133;-67
2023/03/21 09:17:57;;;;;;;25.23;16.05;;;9.60;99.90;;;;;;5051828;28;20049;-67
2023/03/21 09:20:29;;;;;;;25.75;17.95;;;9.50;99.90;;;;;;5069081;28;20045;-67
2023/03/21 09:22:55;;;;;;;28.08;18.15;;;9.60;99.90;;;;;;5068968;28;20055;-68
2023/03/21 09:25:23;;;;;;;31.00;18.25;;;9.60;99.90;;;;;;5068817;28;20041;-68
2023/03/21 09:27:50;;;;;;;29.52;17.63;;;9.60;99.90;;;;;;5053402;28;20045;-68
2023/03/21 09:30:18;;;;;;;28.52;18.70;;;9.60;99.90;;;;;;5068707;28;20043;-67
2023/03/21 09:32:47;;;;;;;29.88;18.35;;;9.50;99.90;;;;;;5052045;28;20053;-68
2023/03/21 09:35:15;;;;;;;29.23;18.75;;;9.50;99.90;;;;;;5051965;28;20118;-68
2023/03/21 09:37:41;;;;;;;30.52;18.80;;;9.50;99.90;;;;;;5051956;28;20497;-69
2023/03/21 09:40:33;;;;;;;30.48;18.38;;;9.50;99.90;;;;;;5068577;28;20395;-68
2023/03/21 09:43:21;;;;;;;33.33;18.42;;;9.60;99.90;;;;;;5033388;28;20045;-68
2023/03/21 09:45:56;;;;;;;29.30;19.55;;;9.60;99.90;;;;;;5068762;28;20037;-67
2023/03/21 09:48:46;;;;;;;28.83;19.33;;;9.60;99.90;;;;;;5051885;28;20037;-67
2023/03/21 09:51:16;;;;;;;30.85;18.13;;;9.60;99.90;;;;;;5051736;28;20052;-67
2023/03/21 09:53:46;;;;;;;31.23;19.65;;;9.60;99.90;;;;;;5051737;28;20044;-68
2023/03/21 09:56:12;;;;;;;30.50;19.85;;;9.50;99.90;;;;;;5051718;28;20055;-67
2023/03/21 09:58:51;;;;;;;31.95;20.17;;;9.60;99.90;;;;;;5051816;28;20519;-67
2023/03/21 10:01:40;;;;;;;27.73;19.05;;;9.50;99.90;;;;;;5051595;28;20379;-68
2023/03/21 10:04:09;;;;;;;29.48;17.90;;;9.60;99.90;;;;;;5068605;28;20502;-68
2023/03/21 10:06:39;;;;;;;31.60;17.85;;;9.50;99.90;;;;;;5068622;28;20506;-67
2023/03/21 10:09:21;;;;;;;29.10;19.00;;;9.50;99.90;;;;;;5051902;28;20049;-67
2023/03/21 10:12:06;;;;;;;29.10;17.42;;;9.50;99.90;;;;;;5068349;28;20497;-68
2023/03/21 10:14:41;;;;;;;27.55;16.05;;;9.60;99.90;;;;;;5051551;28;20041;-68
2023/03/21 10:17:42;;;;;;;22.83;15.07;;;9.60;99.90;;;;;;5051831;28;20504;-68
2023/03/21 10:20:20;;;;;;;28.63;15.02;;;9.60;99.90;;;;;;5051478;28;20494;-67
2023/03/21 10:22:48;;;;;;;27.85;16.00;;;9.60;99.90;;;;;;5051531;28;20037;-70
2023/03/21 10:25:21;;;;;;;24.25;15.60;;;9.60;99.90;;;;;;5068149;28;20094;-69
2023/03/21 10:27:47;;;;;;;29.03;16.53;;;9.70;99.90;;;;;;5051774;28;20175;-68
2023/03/21 10:30:27;;;;;;;23.58;15.60;;;9.70;99.90;;;;;;5054685;28;20040;-69
2023/03/21 10:32:55;;;;;;;26.55;15.25;;;9.80;99.90;;;;;;5072137;28;20497;-70
2023/03/21 10:35:21;;;;;;;31.05;16.63;;;9.90;99.90;;;;;;5055241;28;20049;-70
2023/03/21 10:37:47;;;;;;;29.80;17.10;;;9.90;99.90;;;;;;5055519;28;20098;-70
2023/03/21 10:40:16;;;;;;;22.27;13.57;;;9.90;99.90;;;;;;5055202;28;20401;-68
2023/03/21 10:42:42;;;;;;;23.17;13.90;;;9.90;99.90;;;;;;5071827;28;20037;-68
2023/03/21 10:45:18;;;;;;;23.08;13.45;;;9.90;99.90;;;;;;5055290;28;20048;-68
2023/03/21 10:47:47;;;;;;;22.50;13.48;;;10.00;99.90;;;;;;5055157;28;20071;-68
2023/03/21 10:50:15;;;;;;;26.27;13.27;;;10.00;99.90;;;;;;5071923;28;20082;-68
2023/03/21 10:52:48;;;;;;;22.70;13.88;;;10.10;99.90;;;;;;5071742;28;20120;-68
2023/03/21 10:55:23;;;;;;;25.10;14.10;;;10.10;99.90;;;;;;5071771;28;20544;-67
2023/03/21 10:57:56;;;;;;;24.52;14.68;;;10.20;99.90;;;;;;5054977;28;20049;-67
2023/03/21 11:00:24;;;;;;;;;;;10.20;99.90;;;;;;5071967;28;20053;-67
2023/03/21 11:02:51;;;;;;;27.63;13.75;;;10.30;99.90;;;;;;5055094;28;20380;-67
2023/03/21 11:05:23;;;;;;;25.05;14.48;;;10.30;99.90;;;;;;5054815;28;20116;-67
2023/03/21 11:08:18;;;;;;;24.45;13.80;;;10.40;99.90;;;;;;5054812;28;20412;-67
2023/03/21 11:10:52;;;;;;;24.00;14.73;;;10.50;99.90;;;;;;5046617;28;20137;-67
2023/03/21 11:13:24;;;;;;;23.02;13.38;;;10.60;99.90;;;;;;5071575;28;20055;-67
2023/03/21 11:16:05;;;;;;;20.38;12.82;;;10.70;99.90;;;;;;5054585;28;20076;-68
2023/03/21 11:18:34;;;;;;;19.40;11.02;;;10.80;99.90;;;;;;5054831;28;20505;-68
2023/03/21 11:21:05;;;;;;;20.52;10.80;;;10.90;99.90;;;;;;5071135;28;20049;-68
2023/03/21 11:23:34;;;;;;;19.85;12.30;;;11.00;99.90;;;;;;5054482;28;20045;-68
2023/03/21 11:26:01;;;;;;;19.75;10.35;;;11.00;99.90;;;;;;5071435;28;20119;-70
2023/03/21 11:28:38;;;;;;;18.10;11.35;;;11.10;99.90;;;;;;5054350;28;20044;-67
2023/03/21 11:31:05;;;;;;;18.27;11.27;;;11.20;99.90;;;;;;5054318;28;20083;-67
2023/03/21 11:33:52;;;;;;;16.10;10.43;;;11.10;99.90;;;;;;5071000;28;20052;-67
2023/03/21 11:36:17;;;;;;;16.65;9.63;;;11.20;99.90;;;;;;5054671;28;20066;-67
2023/03/21 11:38:46;;;;;;;20.02;11.10;;;11.10;99.90;;;;;;5054630;28;20468;-67
2023/03/21 11:41:22;;;;;;;18.50;11.20;;;11.10;99.90;;;;;;5055135;28;20041;-67
2023/03/21 11:43:52;;;;;;;18.63;9.80;;;11.20;99.90;;;;;;5055839;28;20094;-67
2023/03/21 11:46:22;;;;;;;17.80;10.55;;;11.20;99.90;;;;;;5054174;28;20043;-67
2023/03/21 11:48:48;;;;;;;17.52;11.00;;;11.20;99.90;;;;;;5070951;28;20033;-67
2023/03/21 11:51:28;;;;;;;16.30;10.77;;;11.20;99.90;;;;;;5070817;28;20232;-67
2023/03/21 11:54:20;;;;;;;15.88;8.82;;;11.30;99.90;;;;;;5053813;28;20048;-67
2023/03/21 11:56:50;;;;;;;19.05;8.88;;;11.20;99.90;;;;;;5049570;28;20049;-67
2023/03/21 11:59:36;;;;;;;14.52;8.60;;;11.20;99.90;;;;;;5053767;28;20048;-67
2023/03/21 12:02:42;;;;;;;16.75;8.80;;;11.20;99.90;;;;;;5053687;28;20045;-68
2023/03/21 12:05:31;;;;;;;18.38;8.95;;;11.20;99.90;;;;;;5053910;28;20045;-67
2023/03/21 12:08:15;;;;;;;17.15;9.15;;;11.20;99.90;;;;;;5053869;28;20555;-67
2023/03/21 12:10:52;;;;;;;15.95;9.23;;;11.20;99.90;;;;;;5053643;28;20045;-67
2023/03/21 12:13:38;;;;;;;16.65;9.10;;;11.40;99.90;;;;;;5053519;28;20045;-67
2023/03/21 12:16:26;;;;;;;16.00;8.35;;;11.40;99.90;;;;;;5033152;28;20052;-67
2023/03/21 12:19:13;;;;;;;15.18;7.60;;;11.60;99.90;;;;;;5053540;28;20040;-69
2023/03/21 12:22:10;;;;;;;13.40;7.93;;;11.60;99.90;;;;;;5037255;28;20056;-69
2023/03/21 12:24:46;;;;;;;13.05;8.02;;;11.60;99.90;;;;;;5034723;28;20441;-70
2023/03/21 12:27:37;;;;;;;14.27;8.57;;;11.50;99.90;;;;;;5053561;28;20037;-69
2023/03/21 12:30:12;;;;;;;14.15;7.25;;;11.40;99.90;;;;;;5053240;28;20486;-69
2023/03/21 12:32:56;;;;;;;15.45;7.90;;;11.40;99.90;;;;;;5053409;28;20037;-69
2023/03/21 12:35:38;;;;;;;13.20;7.45;;;11.30;99.90;;;;;;5053052;28;20041;-70
2023/03/21 12:38:16;;;;;;;12.88;7.82;;;11.20;99.90;;;;;;5053039;28;20383;-69
2023/03/21 12:40:48;;;;;;;12.48;7.38;;;11.30;99.90;;;;;;5052917;28;20414;-69
2023/03/21 12:43:36;;;;;;;14.48;7.22;;;11.20;99.90;;;;;;5052959;28;20480;-69
2023/03/21 12:46:15;;;;;;;14.68;7.05;;;11.20;99.90;;;;;;5053169;28;20044;-69
2023/03/21 12:48:58;;;;;;;16.45;7.38;;;11.20;99.90;;;;;;5053179;28;20048;-69
2023/03/21 12:51:32;;;;;;;13.23;7.70;;;11.20;99.90;;;;;;5052389;28;20048;-69
2023/03/21 12:54:04;;;;;;;12.60;7.68;;;11.20;99.90;;;;;;5052749;28;20049;-70
2023/03/21 12:56:51;;;;;;;15.05;8.23;;;11.20;99.90;;;;;;5052625;28;20045;-69